Time;durP1;ratioP1;P1;durP2;ratioP2;P2;SDS_P1;SDS_P2;PMS_P1;PMS_P2;Temp;Humidity;BMP_temperature;BMP_pressure;BME280_temperature;BME280_humidity;BME280_pressure;Samples;Min_cycle;Max_cycle;Signal;HPM_P1;HPM_P2
2022/04/22 00:00:22;;;;;;;13.07;7.13;;;;;;;-145.18;100.00;47402.72;5010147;28;20113;-71
2022/04/22 00:02:47;;;;;;;10.07;6.40;;;;;;;-145.18;100.00;47392.97;5009223;28;20061;-71
2022/04/22 00:05:12;;;;;;;14.87;6.40;;;;;;;-145.18;100.00;47394.91;5009737;28;20669;-72
2022/04/22 00:07:38;;;;;;;22.00;7.07;;;;;;;-145.18;100.00;47391.00;5009468;28;20042;-72
2022/04/22 00:10:05;;;;;;;13.77;6.70;;;;;;;-145.18;100.00;47387.09;5009944;28;20069;-72
2022/04/22 00:12:31;;;;;;;15.93;7.47;;;;;;;-145.18;100.00;47400.78;5009599;28;20030;-72
2022/04/22 00:14:56;;;;;;;13.37;7.13;;;;;;;-145.18;100.00;47383.19;5009503;28;20802;-71
2022/04/22 00:17:21;;;;;;;9.80;7.27;;;;;;;-145.18;100.00;47400.78;5009606;28;20050;-72
2022/04/22 00:19:47;;;;;;;11.03;7.03;;;;;;;-145.18;100.00;47361.72;5009947;28;20807;-72
2022/04/22 00:22:12;;;;;;;14.83;7.90;;;;;;;-145.18;100.00;47285.50;5009249;28;20064;-71
2022/04/22 00:24:37;;;;;;;11.00;7.20;;;;;;;-145.18;100.00;47260.13;5009762;28;20030;-72
2022/04/22 00:27:03;;;;;;;10.83;8.17;;;;;;;-145.18;100.00;47324.59;5009219;28;20041;-72
2022/04/22 00:29:28;;;;;;;12.37;7.70;;;;;;;-145.18;100.00;47223.00;5009822;28;20038;-71
2022/04/22 00:31:54;;;;;;;14.50;7.07;;;;;;;-145.18;100.00;47299.19;5009165;28;20113;-72
2022/04/22 00:34:20;;;;;;;10.23;6.37;;;;;;;-145.18;100.00;47307.00;5009608;28;20038;-72
2022/04/22 00:36:45;;;;;;;10.03;7.87;;;;;;;-145.18;100.00;47277.69;5012879;28;20044;-72
2022/04/22 00:39:11;;;;;;;13.10;7.90;;;;;;;-145.18;100.00;47285.50;5012939;28;20279;-71
2022/04/22 00:41:36;;;;;;;13.23;8.23;;;;;;;-145.18;100.00;47250.34;5012913;28;20041;-71
2022/04/22 00:44:02;;;;;;;19.53;8.80;;;;;;;-145.18;100.00;47265.97;5012102;28;20041;-71
2022/04/22 00:46:27;;;;;;;13.33;8.43;;;;;;;-145.18;100.00;47250.34;5013299;28;20046;-71
2022/04/22 00:48:53;;;;;;;11.90;7.90;;;;;;;-145.18;100.00;47219.09;5012822;28;20049;-72
2022/04/22 00:51:21;;;;;;;18.60;8.30;;;;;;;-145.18;100.00;47236.66;5012760;28;20126;-72
2022/04/22 00:53:49;;;;;;;15.90;7.90;;;;;;;-145.18;100.00;47293.31;5013452;28;20037;-71
2022/04/22 00:56:16;;;;;;;13.53;8.77;;;;;;;-145.18;100.00;47232.75;5012896;28;20330;-72
2022/04/22 00:58:43;;;;;;;13.00;7.33;;;;;;;-145.18;100.00;47203.47;5012856;28;20270;-71
2022/04/22 01:01:11;;;;;;;15.37;7.50;;;;;;;-145.18;100.00;47238.63;5012484;28;20299;-71
2022/04/22 01:03:36;;;;;;;14.17;8.80;;;;;;;-145.18;100.00;47191.75;5012420;28;20647;-72
2022/04/22 01:11:35;;;;;;;;;;;;;;;-145.18;100.00;47012.00;5013160;28;20748;-71
2022/04/22 01:14:01;;;;;;;11.70;8.50;;;;;;;-145.18;100.00;46974.91;5012533;28;19913;-71
2022/04/22 01:16:27;;;;;;;14.90;9.07;;;;;;;-145.18;100.00;46935.81;5012655;28;20309;-71
2022/04/22 01:18:52;;;;;;;14.60;7.80;;;;;;;-145.18;100.00;46916.28;5012364;28;21020;-71
2022/04/22 01:21:19;;;;;;;15.00;8.43;;;;;;;-145.18;100.00;46838.16;5012702;28;20041;-72
2022/04/22 01:23:44;;;;;;;16.77;9.27;;;;;;;-145.18;100.00;46767.84;5012547;28;20026;-71
2022/04/22 01:26:11;;;;;;;15.23;8.33;;;;;;;-145.18;100.00;46767.84;5012642;28;20824;-71
2022/04/22 01:28:38;;;;;;;14.27;9.03;;;;;;;-145.18;100.00;46752.19;5012047;28;20026;-71
2022/04/22 01:31:03;;;;;;;17.30;8.73;;;;;;;-145.18;100.00;46738.53;5012367;28;20264;-71
2022/04/22 01:33:28;;;;;;;16.90;9.90;;;;;;;-145.18;100.00;46707.28;5010899;28;20278;-71
2022/04/22 01:35:54;;;;;;;16.17;9.53;;;;;;;-145.18;100.00;46699.47;5010808;28;20033;-71
2022/04/22 01:38:19;;;;;;;15.67;9.80;;;;;;;-145.18;100.00;46707.28;5012313;28;20072;-71
2022/04/22 01:40:45;;;;;;;14.73;9.50;;;;;;;-145.18;100.00;46697.50;5011997;28;20037;-71
2022/04/22 01:43:10;;;;;;;17.13;9.70;;;;;;;-145.18;100.00;46703.38;5011579;28;20479;-72
2022/04/22 01:45:36;;;;;;;15.60;10.10;;;;;;;-145.18;100.00;46658.44;5015290;28;20084;-71
2022/04/22 01:48:01;;;;;;;18.33;9.80;;;;;;;-145.18;100.00;46689.69;5029750;28;20025;-71
2022/04/22 01:50:27;;;;;;;16.37;9.67;;;;;;;-145.18;100.00;46666.25;5032490;28;20793;-71
2022/04/22 01:52:52;;;;;;;17.93;9.83;;;;;;;-145.18;100.00;46648.69;5031125;28;20033;-71
2022/04/22 01:55:18;;;;;;;16.07;9.73;;;;;;;-145.18;100.00;46627.19;5031705;28;20128;-71
2022/04/22 01:57:43;;;;;;;13.17;9.30;;;;;;;-145.18;100.00;46648.69;5031308;28;20028;-71
2022/04/22 02:02:53;;;;;;;12.00;8.47;;;;;;;-145.18;100.00;46617.41;5296632;23;20454;-71
2022/04/22 02:05:18;;;;;;;16.43;10.30;;;;;;;-145.18;100.00;46627.19;5006746;28;20299;-71
2022/04/22 02:07:43;;;;;;;13.60;9.13;;;;;;;-145.18;100.00;46607.66;5010892;28;20038;-71
2022/04/22 02:10:10;;;;;;;16.30;9.73;;;;;;;-145.18;100.00;46619.38;5010966;28;20038;-71
2022/04/22 02:12:35;;;;;;;14.30;9.60;;;;;;;-145.18;100.00;46599.84;5011250;28;20038;-71
2022/04/22 02:15:01;;;;;;;14.83;10.23;;;;;;;-145.18;100.00;46607.66;5011609;28;20794;-71
2022/04/22 02:17:27;;;;;;;17.40;10.50;;;;;;;-145.18;100.00;46617.41;5011522;28;20030;-71
2022/04/22 02:19:53;;;;;;;17.73;10.43;;;;;;;-145.18;100.00;46601.78;5011867;28;20322;-71
2022/04/22 02:22:18;;;;;;;14.40;10.27;;;;;;;-145.18;100.00;46593.97;5010835;28;20759;-71
2022/04/22 02:24:43;;;;;;;12.87;9.50;;;;;;;-145.18;100.00;46592.03;5011646;28;20088;-71
2022/04/22 02:29:53;;;;;;;17.70;10.57;;;;;;;-145.18;100.00;46593.97;5011910;28;20122;-72
2022/04/22 02:32:18;;;;;;;15.27;9.30;;;;;;;-145.18;100.00;46592.03;5010877;28;20342;-72
2022/04/22 02:34:43;;;;;;;13.67;9.37;;;;;;;-145.18;100.00;46593.97;5011318;28;20037;-71
2022/04/22 02:37:10;;;;;;;16.67;10.37;;;;;;;-145.18;100.00;46588.13;5010955;28;20030;-71
2022/04/22 02:39:36;;;;;;;17.03;10.43;;;;;;;-145.18;100.00;46588.13;4994156;28;20072;-71
2022/04/22 02:47:29;;;;;;;15.13;9.87;;;;;;;-145.18;100.00;46568.59;5011112;28;20275;-71
2022/04/22 02:49:55;;;;;;;15.70;10.03;;;;;;;-145.18;100.00;46570.53;4993638;28;20279;-71
2022/04/22 02:52:20;;;;;;;13.47;9.30;;;;;;;-145.18;100.00;46566.63;5010573;28;20045;-71
2022/04/22 02:54:46;;;;;;;13.80;9.30;;;;;;;-145.18;100.00;46578.34;5011380;28;20227;-71
2022/04/22 02:57:11;;;;;;;14.70;8.80;;;;;;;-145.18;100.00;46568.59;5010270;28;20042;-71
2022/04/22 02:59:40;;;;;;;14.30;8.60;;;;;;;-145.18;100.00;46572.50;5011151;28;20375;-71
2022/04/22 03:02:06;;;;;;;19.93;10.60;;;;;;;-145.18;100.00;46568.59;5010537;28;20029;-72
2022/04/22 03:04:31;;;;;;;13.03;9.30;;;;;;;-145.18;100.00;46568.59;5010690;28;20792;-71
2022/04/22 03:06:57;;;;;;;13.83;8.57;;;;;;;-145.18;100.00;46568.59;5010144;28;20398;-71
2022/04/22 03:09:22;;;;;;;15.93;9.20;;;;;;;-145.18;100.00;46562.72;5010700;28;20514;-71
2022/04/22 03:11:48;;;;;;;13.37;8.70;;;;;;;-145.18;100.00;46568.59;5011197;28;20337;-71
2022/04/22 03:14:14;;;;;;;12.73;8.53;;;;;;;-145.18;100.00;46566.63;5010420;28;20038;-71
2022/04/22 03:16:40;;;;;;;17.77;9.73;;;;;;;-145.18;100.00;46564.69;5010335;28;20494;-71
2022/04/22 03:19:06;;;;;;;13.67;9.10;;;;;;;-145.18;100.00;46568.59;5010218;28;20084;-71
2022/04/22 03:21:32;;;;;;;19.03;9.50;;;;;;;-145.18;100.00;46568.59;5010605;28;20779;-71
2022/04/22 03:23:57;;;;;;;15.27;8.73;;;;;;;-145.18;100.00;46570.53;5010028;28;20275;-71
2022/04/22 03:26:24;;;;;;;15.47;9.77;;;;;;;-145.18;100.00;46566.63;5010423;28;20041;-71
2022/04/22 03:28:50;;;;;;;13.17;8.37;;;;;;;-145.18;100.00;46564.69;5009958;28;20052;-71
2022/04/22 03:31:15;;;;;;;13.50;8.90;;;;;;;-145.18;100.00;46566.63;5010532;28;20747;-71
2022/04/22 03:33:40;;;;;;;13.47;9.07;;;;;;;-145.18;100.00;46562.72;5010057;28;20044;-71
2022/04/22 03:36:06;;;;;;;14.40;9.67;;;;;;;-145.18;100.00;46568.59;5010225;28;20607;-71
2022/04/22 03:38:31;;;;;;;17.40;9.10;;;;;;;-145.18;100.00;46568.59;5010110;28;20474;-71
2022/04/22 03:40:57;;;;;;;13.47;9.10;;;;;;;-145.18;100.00;46576.41;5010374;28;20479;-71
2022/04/22 03:43:24;;;;;;;15.23;8.33;;;;;;;-145.18;100.00;46568.59;5010167;28;20030;-71
2022/04/22 03:45:49;;;;;;;11.27;7.87;;;;;;;-145.18;100.00;46554.91;5010246;28;20037;-71
2022/04/22 03:48:15;;;;;;;14.60;9.40;;;;;;;-145.18;100.00;46560.78;5009558;28;20283;-71
2022/04/22 03:50:40;;;;;;;15.83;9.00;;;;;;;-145.18;100.00;46562.72;5010269;28;20042;-71
2022/04/22 03:53:08;;;;;;;16.10;9.30;;;;;;;-145.18;100.00;46556.88;5009717;28;20041;-71
2022/04/22 03:55:34;;;;;;;13.63;8.83;;;;;;;-145.18;100.00;46560.78;5009925;28;20034;-71
2022/04/22 03:58:11;;;;;;;22.43;9.87;;;;;;;-145.18;100.00;46556.88;4992004;28;20406;-71
2022/04/22 04:00:57;;;;;;;13.87;9.07;;;;;;;-145.18;100.00;46547.09;5010001;28;20092;-71
2022/04/22 04:03:23;;;;;;;14.00;8.98;;;;;;;-145.18;100.00;46547.09;5008970;28;20291;-71
2022/04/22 04:05:51;;;;;;;16.40;8.63;;;;;;;-145.18;100.00;46551.00;5010082;28;20506;-71
2022/04/22 04:08:20;;;;;;;14.20;9.03;;;;;;;-145.18;100.00;46549.06;5009368;28;20709;-72
2022/04/22 04:16:15;;;;;;;20.60;9.93;;;;;;;-145.18;100.00;46543.19;5013861;28;20286;-71
2022/04/22 04:18:41;;;;;;;19.40;9.40;;;;;;;-145.18;100.00;46535.38;5011363;28;20287;-71
2022/04/22 04:23:53;;;;;;;16.90;9.85;;;;;;;-145.18;100.00;46560.78;5001090;28;20433;-71
2022/04/22 04:26:21;;;;;;;14.93;9.70;;;;;;;-145.18;100.00;46570.53;4995318;28;20483;-71
2022/04/22 04:28:48;;;;;;;21.57;10.10;;;;;;;-145.18;100.00;46619.38;5012909;28;20298;-71
2022/04/22 04:31:14;;;;;;;16.30;10.67;;;;;;;-145.18;100.00;46633.06;5013822;28;20267;-71
2022/04/22 04:33:40;;;;;;;20.83;10.27;;;;;;;-145.18;100.00;46660.41;5013538;28;20770;-72
2022/04/22 04:36:09;;;;;;;22.00;10.57;;;;;;;-145.18;100.00;46644.78;5013415;28;20140;-71
2022/04/22 04:38:37;;;;;;;23.63;11.27;;;;;;;-145.18;100.00;46650.63;5013189;28;20271;-71
2022/04/22 04:41:03;;;;;;;19.33;11.27;;;;;;;-145.18;100.00;46658.44;5013525;28;20298;-71
2022/04/22 04:43:28;;;;;;;15.03;10.03;;;;;;;-145.18;100.00;46652.59;5013350;28;20267;-71
2022/04/22 04:45:54;;;;;;;19.83;10.93;;;;;;;-145.18;100.00;46658.44;5013649;28;20863;-71
2022/04/22 04:48:19;;;;;;;19.03;10.50;;;;;;;-145.18;100.00;46652.59;5013077;28;20030;-71
2022/04/22 04:50:45;;;;;;;16.67;10.43;;;;;;;-145.18;100.00;46656.50;5012109;28;20033;-72
2022/04/22 04:53:14;;;;;;;19.47;11.17;;;;;;;-145.18;100.00;46656.50;5012382;28;20030;-71
2022/04/22 04:55:40;;;;;;;18.27;10.90;;;;;;;-145.18;100.00;46658.44;5013465;28;20361;-71
2022/04/22 04:58:06;;;;;;;17.03;10.80;;;;;;;-145.18;100.00;46658.44;5012737;28;20264;-71
2022/04/22 05:00:31;;;;;;;18.43;11.80;;;;;;;-145.18;100.00;46656.50;5013024;28;20668;-71
2022/04/22 05:02:57;;;;;;;20.30;12.37;;;;;;;-145.18;100.00;46654.53;5012059;28;20034;-71
2022/04/22 05:05:23;;;;;;;20.13;11.20;;;;;;;-145.18;100.00;46660.41;5011246;28;20034;-71
2022/04/22 05:07:55;;;;;;;19.73;11.90;;;;;;;-145.18;100.00;46648.69;5012408;28;20041;-71
2022/04/22 05:10:20;;;;;;;21.80;12.03;;;;;;;-145.18;100.00;46650.63;5013178;28;20040;-71
2022/04/22 05:12:48;;;;;;;21.77;12.43;;;;;;;-145.18;100.00;46650.63;5011381;28;20264;-71
2022/04/22 05:15:14;;;;;;;23.97;12.43;;;;;;;-145.18;100.00;46652.59;5012244;28;20115;-71
2022/04/22 05:17:43;;;;;;;21.57;13.00;;;;;;;-145.18;100.00;46652.59;5012538;28;20855;-71
2022/04/22 05:20:10;;;;;;;25.50;14.33;;;;;;;-145.18;100.00;46642.81;5012947;28;20041;-71
2022/04/22 05:22:36;;;;;;;20.00;13.37;;;;;;;-145.18;100.00;46648.69;5010706;28;20275;-71
2022/04/22 05:25:02;;;;;;;20.90;13.47;;;;;;;-145.18;100.00;46648.69;5012476;28;20766;-72
2022/04/22 05:27:27;;;;;;;20.10;14.07;;;;;;;-145.18;100.00;46644.78;4995141;28;20037;-71
2022/04/22 05:32:36;;;;;;;24.07;13.50;;;;;;;-145.18;100.00;46640.88;5012777;28;20041;-71
2022/04/22 05:35:06;;;;;;;23.60;14.50;;;;;;;-145.18;100.00;46642.81;5012474;28;20636;-71
2022/04/22 05:37:46;;;;;;;19.73;13.23;;;;;;;-145.18;100.00;46642.81;5012187;28;20037;-72
2022/04/22 05:40:13;;;;;;;23.27;14.13;;;;;;;-145.18;100.00;46642.81;5012247;28;20263;-71
2022/04/22 05:42:38;;;;;;;23.40;13.90;;;;;;;-145.18;100.00;46642.81;5004951;28;20318;-72
2022/04/22 05:45:06;;;;;;;23.03;14.27;;;;;;;-145.18;100.00;46638.91;5011763;28;20255;-72
2022/04/22 05:47:32;;;;;;;20.83;13.63;;;;;;;-145.18;100.00;46638.91;4994128;28;20021;-72
2022/04/22 05:49:57;;;;;;;20.67;13.50;;;;;;;-145.18;100.00;46642.81;5011623;28;20320;-72
2022/04/22 05:52:23;;;;;;;21.87;13.70;;;;;;;-145.18;100.00;46640.88;4994366;28;20060;-72
2022/04/22 05:54:48;;;;;;;25.37;14.77;;;;;;;-145.18;100.00;46642.81;5011793;28;20041;-72
2022/04/22 05:57:13;;;;;;;20.27;14.53;;;;;;;-145.18;100.00;46640.88;5011591;28;20503;-72
2022/04/22 05:59:39;;;;;;;17.67;13.47;;;;;;;-145.18;100.00;46633.06;5008725;28;20049;-72
2022/04/22 06:02:05;;;;;;;23.70;14.53;;;;;;;-145.18;100.00;46636.94;5010142;28;20046;-72
2022/04/22 06:04:30;;;;;;;20.80;14.13;;;;;;;-145.18;100.00;46636.94;5009783;28;20058;-72
2022/04/22 06:06:56;;;;;;;25.87;13.83;;;;;;;-145.18;100.00;46635.00;4992665;28;20264;-72
2022/04/22 06:12:05;;;;;;;19.53;13.77;;;;;;;-145.18;100.00;46629.13;5010105;28;20044;-72
2022/04/22 06:14:31;;;;;;;19.73;13.53;;;;;;;-145.18;100.00;46621.31;5009675;28;20275;-72
2022/04/22 06:16:56;;;;;;;20.57;14.17;;;;;;;-145.18;100.00;46621.31;5009047;28;20116;-73
2022/04/22 06:19:21;;;;;;;25.30;15.37;;;;;;;-145.18;100.00;46619.38;5011261;28;20449;-72
2022/04/22 06:21:47;;;;;;;18.93;13.77;;;;;;;-145.18;100.00;46615.47;5009927;28;20034;-72
2022/04/22 06:24:13;;;;;;;20.17;13.80;;;;;;;-145.18;100.00;46611.56;5006565;28;20038;-72
2022/04/22 06:26:38;;;;;;;23.80;14.77;;;;;;;-145.18;100.00;46597.88;4987272;28;20045;-72
2022/04/22 06:29:04;;;;;;;24.37;14.87;;;;;;;-145.18;100.00;46586.16;5006585;28;20430;-72
2022/04/22 06:31:29;;;;;;;20.97;14.10;;;;;;;-145.18;100.00;46574.44;5009758;28;20494;-72
2022/04/22 06:33:56;;;;;;;19.90;13.50;;;;;;;-145.18;100.00;46560.78;5009014;28;20121;-72
2022/04/22 06:36:26;;;;;;;23.00;13.83;;;;;;;-145.18;100.00;46545.16;5009867;28;20486;-72
2022/04/22 06:38:57;;;;;;;21.00;13.73;;;;;;;-145.18;100.00;46535.38;5010528;28;20783;-76
2022/04/22 06:46:51;;;;;;;18.63;13.93;;;;;;;-145.18;100.00;46523.66;5011587;28;20262;-70
2022/04/22 06:49:16;;;;;;;17.77;12.93;;;;;;;-145.18;100.00;46511.94;5010379;28;20276;-71
2022/04/22 06:51:42;;;;;;;20.57;14.27;;;;;;;-145.18;100.00;46513.91;5007788;28;20038;-71
2022/04/22 06:54:08;;;;;;;21.17;14.20;;;;;;;-145.18;100.00;46523.66;5003396;28;20152;-71
2022/04/22 06:56:34;;;;;;;18.73;14.27;;;;;;;-145.18;100.00;46515.84;4987168;28;20030;-71
2022/04/22 06:59:00;;;;;;;19.50;14.07;;;;;;;-145.18;100.00;46508.03;5006825;28;20096;-71
2022/04/22 07:01:25;;;;;;;17.30;13.27;;;;;;;-145.18;100.00;46506.09;5003392;28;20287;-71
2022/04/22 07:03:51;;;;;;;17.20;13.57;;;;;;;-145.18;100.00;46511.94;5008567;28;20058;-71
2022/04/22 07:06:16;;;;;;;19.73;13.57;;;;;;;-145.18;100.00;46508.03;5006105;28;20189;-71
2022/04/22 07:08:45;;;;;;;18.73;13.23;;;;;;;-145.18;100.00;46511.94;5008994;28;20034;-71
2022/04/22 07:11:26;;;;;;;19.20;13.47;;;;;;;-145.18;100.00;46511.94;5008844;28;20647;-71
2022/04/22 07:13:55;;;;;;;18.33;13.80;;;;;;;-145.18;100.00;46513.91;5010001;28;20275;-71
2022/04/22 07:16:21;;;;;;;19.80;14.13;;;;;;;-145.18;100.00;46508.03;5009942;28;20280;-71
2022/04/22 07:18:47;;;;;;;18.60;14.27;;;;;;;-145.18;100.00;46510.00;4992164;28;20275;-72
2022/04/22 07:21:13;;;;;;;19.07;14.03;;;;;;;-145.18;100.00;46508.03;5010338;28;20049;-71
2022/04/22 07:23:39;;;;;;;19.50;14.63;;;;;;;-145.18;100.00;46511.94;5009074;28;20317;-71
2022/04/22 07:26:07;;;;;;;19.70;14.07;;;;;;;-145.18;100.00;46521.72;5009788;28;20184;-71
2022/04/22 07:28:33;;;;;;;24.70;14.13;;;;;;;-145.18;100.00;46511.94;5008861;28;20279;-71
2022/04/22 07:31:01;;;;;;;19.63;13.20;;;;;;;-145.18;100.00;46515.84;4991527;28;20297;-72
2022/04/22 07:33:27;;;;;;;21.07;14.60;;;;;;;-145.18;100.00;46525.63;5009397;28;20030;-71
2022/04/22 07:35:52;;;;;;;18.20;13.23;;;;;;;-145.18;100.00;46525.63;5010338;28;20311;-71
2022/04/22 07:38:18;;;;;;;22.53;14.30;;;;;;;-145.18;100.00;46525.63;5009693;28;20061;-71
2022/04/22 07:40:48;;;;;;;21.40;14.97;;;;;;;-145.18;100.00;46521.72;5009871;28;20042;-71
2022/04/22 07:48:43;;;;;;;18.50;13.97;;;;;;;-145.18;100.00;46535.38;5010023;28;20283;-72
2022/04/22 07:51:08;;;;;;;17.67;12.73;;;;;;;-145.18;100.00;46531.47;5009966;28;20753;-71
2022/04/22 07:53:35;;;;;;;19.50;13.63;;;;;;;-145.18;100.00;46533.44;5009651;28;20072;-71
2022/04/22 07:56:02;;;;;;;17.87;13.23;;;;;;;-145.18;100.00;46545.16;5009595;28;20386;-72
2022/04/22 07:58:29;;;;;;;19.77;14.00;;;;;;;-145.18;100.00;46531.47;5009489;28;20275;-71
2022/04/22 08:00:55;;;;;;;17.00;12.60;;;;;;;-145.18;100.00;46525.63;5009859;28;20310;-71
2022/04/22 08:03:20;;;;;;;19.60;13.23;;;;;;;-145.18;100.00;46531.47;5009122;28;20295;-72
2022/04/22 08:05:46;;;;;;;17.97;12.83;;;;;;;-145.18;100.00;46535.38;5009883;28;20026;-71
2022/04/22 08:08:11;;;;;;;20.80;14.23;;;;;;;-145.18;100.00;46541.25;5009454;28;20454;-71
2022/04/22 08:10:38;;;;;;;18.30;12.57;;;;;;;-145.18;100.00;46543.19;4992133;28;20060;-71
2022/04/22 08:13:07;;;;;;;16.93;12.70;;;;;;;-145.18;100.00;46537.34;5009213;28;20022;-72
2022/04/22 08:15:33;;;;;;;19.60;13.37;;;;;;;-145.18;100.00;46533.44;5009538;28;20263;-71
2022/04/22 08:18:00;;;;;;;16.93;13.23;;;;;;;-145.18;100.00;46535.38;5009281;28;20736;-72
2022/04/22 08:20:25;;;;;;;19.23;12.60;;;;;;;-145.18;100.00;46539.28;5009168;28;20282;-71
2022/04/22 08:22:50;;;;;;;16.13;12.20;;;;;;;-145.18;100.00;46535.38;5009451;28;20267;-71
2022/04/22 08:25:16;;;;;;;20.27;13.00;;;;;;;-145.18;100.00;46537.34;5008873;28;20087;-71
2022/04/22 08:27:42;;;;;;;17.97;11.13;;;;;;;-145.18;100.00;46551.00;5009509;28;20056;-71
2022/04/22 08:30:09;;;;;;;17.20;12.77;;;;;;;-145.18;100.00;46547.09;5008935;28;20169;-71
2022/04/22 08:32:35;;;;;;;16.77;10.57;;;;;;;-145.18;100.00;46547.09;5009431;28;20421;-71
2022/04/22 08:35:00;;;;;;;14.87;11.47;;;;;;;-145.18;100.00;46558.81;5008861;28;20363;-71
2022/04/22 08:37:26;;;;;;;14.90;10.80;;;;;;;-145.18;100.00;46558.81;5009823;28;20386;-71
2022/04/22 08:39:51;;;;;;;18.87;11.83;;;;;;;-145.18;100.00;46568.59;5009238;28;20026;-72
2022/04/22 08:42:23;;;;;;;16.63;11.57;;;;;;;-145.18;100.00;46545.16;5008844;28;20038;-72
2022/04/22 08:44:49;;;;;;;19.03;10.93;;;;;;;-145.18;100.00;46554.91;5009146;28;20495;-72
2022/04/22 08:49:58;;;;;;;17.30;10.93;;;;;;;-145.18;100.00;46566.63;5009002;28;20076;-72
2022/04/22 08:52:26;;;;;;;13.47;10.40;;;;;;;-145.18;100.00;46552.97;5009514;28;20062;-72
2022/04/22 08:54:54;;;;;;;13.27;10.50;;;;;;;-145.18;100.00;46597.88;5008941;28;20034;-72
2022/04/22 08:57:20;;;;;;;15.20;10.73;;;;;;;-145.18;100.00;46617.41;5011896;28;20044;-72
2022/04/22 08:59:46;;;;;;;15.17;10.20;;;;;;;-145.18;100.00;46560.78;5012770;28;20029;-72
2022/04/22 09:02:16;;;;;;;14.93;10.60;;;;;;;-145.18;100.00;46603.75;5009852;28;20071;-72
2022/04/22 09:04:42;;;;;;;15.87;10.67;;;;;;;-145.18;100.00;46576.41;5020724;23;20116;-72
2022/04/22 09:07:12;;;;;;;16.37;12.47;;;;;;;-145.18;100.00;46592.03;5011039;28;20437;-72
2022/04/22 09:09:38;;;;;;;16.23;11.07;;;;;;;-145.18;100.00;46660.41;5012069;28;20029;-71
2022/04/22 09:12:09;;;;;;;15.87;12.03;;;;;;;-145.18;100.00;46566.63;4975529;28;20646;-71
2022/04/22 09:14:35;;;;;;;20.53;11.17;;;;;;;-145.18;100.00;46613.50;5011890;28;20054;-73
2022/04/22 09:17:01;;;;;;;15.23;10.50;;;;;;;-145.18;100.00;46621.31;5012393;28;20072;-73
2022/04/22 09:19:34;;;;;;;15.27;10.83;;;;;;;-145.18;100.00;46957.31;5008172;28;20032;-72
2022/04/22 09:22:01;;;;;;;14.60;11.17;;;;;;;-145.18;100.00;47170.25;4993908;28;20569;-72
2022/04/22 09:24:26;;;;;;;14.40;10.07;;;;;;;-145.18;100.00;47172.19;5012316;28;20030;-72
2022/04/22 09:27:05;;;;;;;13.70;10.77;;;;;;;-145.18;100.00;47191.75;5012413;28;20508;-72
2022/04/22 09:29:53;;;;;;;14.13;10.87;;;;;;;-145.18;100.00;47197.59;5011120;28;20283;-72
2022/04/22 09:32:26;;;;;;;15.87;8.93;;;;;;;-145.18;100.00;47174.16;5011823;28;20030;-72
2022/04/22 09:34:55;;;;;;;12.00;7.53;;;;;;;-145.18;100.00;47137.03;5011707;28;20441;-72
2022/04/22 09:42:58;;;;;;;10.23;7.43;;;;;;;-145.18;100.00;47150.72;5011890;28;20072;-72
2022/04/22 09:45:37;;;;;;;11.27;7.83;;;;;;;-145.18;100.00;47125.31;5011225;28;20466;-72
2022/04/22 09:48:15;;;;;;;9.57;7.53;;;;;;;-145.18;100.00;47111.66;5011406;28;20033;-72
2022/04/22 09:50:52;;;;;;;13.73;7.50;;;;;;;-145.18;100.00;47121.41;5010758;28;20529;-72
2022/04/22 09:53:28;;;;;;;12.30;7.30;;;;;;;-145.18;100.00;47125.31;5011574;28;20576;-72
2022/04/22 09:55:55;;;;;;;14.80;8.30;;;;;;;-145.18;100.00;47135.09;5010398;28;20473;-74
2022/04/22 09:58:22;;;;;;;13.50;7.30;;;;;;;-145.18;100.00;47131.19;5010536;28;20542;-72
2022/04/22 10:01:13;;;;;;;12.50;7.17;;;;;;;-145.18;100.00;47097.97;5011278;28;20029;-75
2022/04/22 10:03:38;;;;;;;11.37;7.43;;;;;;;-145.18;100.00;47131.19;5011402;28;20085;-74
2022/04/22 10:06:06;;;;;;;11.37;7.50;;;;;;;-145.18;100.00;47109.69;5011224;28;20054;-72
2022/04/22 10:08:36;;;;;;;13.67;6.73;;;;;;;-145.18;100.00;47109.69;5011343;28;20022;-74
2022/04/22 10:11:04;;;;;;;11.97;7.87;;;;;;;-145.18;100.00;47121.41;5011470;28;20038;-72
2022/04/22 10:13:33;;;;;;;15.80;8.20;;;;;;;-145.18;100.00;47121.41;5011966;28;20073;-72
2022/04/22 10:15:59;;;;;;;12.93;8.33;;;;;;;-145.18;100.00;47105.78;5011170;28;20040;-75
2022/04/22 10:18:26;;;;;;;12.47;8.20;;;;;;;-145.18;100.00;47117.50;5011608;28;20412;-74
2022/04/22 10:20:52;;;;;;;12.43;7.90;;;;;;;-145.18;100.00;47162.44;4993038;28;20030;-72
2022/04/22 10:23:18;;;;;;;19.07;8.60;;;;;;;-145.18;100.00;47137.03;5011224;28;20801;-72
2022/04/22 10:25:44;;;;;;;12.70;7.37;;;;;;;-145.18;100.00;47125.31;5010580;28;20133;-74
2022/04/22 10:28:11;;;;;;;19.40;7.70;;;;;;;-145.18;100.00;47101.88;5011086;28;20057;-74
2022/04/22 10:30:41;;;;;;;12.83;7.63;;;;;;;-145.18;100.00;47131.19;5010732;28;20446;-72
2022/04/22 10:33:08;;;;;;;12.97;8.83;;;;;;;-145.18;100.00;47096.00;5010727;28;20033;-74
2022/04/22 10:35:42;;;;;;;14.00;7.73;;;;;;;-145.18;100.00;47097.97;5010536;28;20545;-74
2022/04/22 10:38:28;;;;;;;18.13;7.83;;;;;;;-145.18;100.00;47131.19;5010537;28;20026;-74
2022/04/22 10:40:54;;;;;;;12.98;8.02;;;;;;;-145.18;100.00;47084.28;5010785;28;20061;-74
2022/04/22 10:43:20;;;;;;;16.33;8.13;;;;;;;-145.18;100.00;47137.03;5011589;28;20116;-74
2022/04/22 10:48:30;;;;;;;18.17;7.57;;;;;;;-145.18;100.00;47109.69;4996801;28;20052;-74
2022/04/22 10:51:00;;;;;;;11.97;7.30;;;;;;;-145.18;100.00;47066.72;5010520;28;20033;-75
2022/04/22 10:53:39;;;;;;;16.40;6.50;;;;;;;-145.18;100.00;47066.72;5010582;28;20109;-73
2022/04/22 10:56:26;;;;;;;10.43;6.87;;;;;;;-145.18;100.00;47064.75;5010441;28;20030;-74
2022/04/22 10:59:32;;;;;;;11.77;7.33;;;;;;;-145.18;100.00;47072.56;5009940;28;20030;-73
2022/04/22 11:01:58;;;;;;;8.90;6.95;;;;;;;-145.18;100.00;47056.94;5010450;28;20442;-73
2022/04/22 11:04:26;;;;;;;10.77;8.33;;;;;;;-145.18;100.00;47039.34;5010163;28;20133;-73
2022/04/22 11:06:52;;;;;;;15.13;7.30;;;;;;;-145.18;100.00;47107.72;5010674;28;20018;-73
2022/04/22 11:09:31;;;;;;;20.07;7.90;;;;;;;-145.18;100.00;47078.44;5009938;28;20101;-73
2022/04/22 11:11:58;;;;;;;10.90;7.20;;;;;;;-145.18;100.00;47105.78;5010226;28;20068;-73
2022/04/22 11:14:26;;;;;;;11.77;6.63;;;;;;;-145.18;100.00;47064.75;5010369;28;20401;-73
2022/04/22 11:16:54;;;;;;;9.17;6.43;;;;;;;-145.18;100.00;47097.97;5010512;28;20026;-73
2022/04/22 11:19:19;;;;;;;15.67;6.33;;;;;;;-145.18;100.00;47131.19;5009991;28;20026;-73
2022/04/22 11:21:47;;;;;;;16.37;6.50;;;;;;;-145.18;100.00;47160.47;5007538;28;20513;-73
2022/04/22 11:24:31;;;;;;;11.67;6.23;;;;;;;-145.18;100.00;47152.66;5009940;28;20026;-72
2022/04/22 11:27:08;;;;;;;17.33;6.63;;;;;;;-145.18;100.00;47125.31;5010020;28;20088;-72
2022/04/22 11:29:35;;;;;;;11.80;6.87;;;;;;;-145.18;100.00;47121.41;5010288;28;20062;-72
2022/04/22 11:32:07;;;;;;;14.57;6.70;;;;;;;-145.18;100.00;47109.69;5010045;28;20049;-73
2022/04/22 11:34:54;;;;;;;14.10;6.17;;;;;;;-145.18;100.00;47058.91;5009254;28;20479;-73
2022/04/22 11:37:22;;;;;;;8.07;5.47;;;;;;;-145.18;100.00;47148.75;5009798;28;20030;-72
2022/04/22 11:39:48;;;;;;;14.37;5.87;;;;;;;-145.18;100.00;47156.56;5009671;28;20145;-73
2022/04/22 11:42:17;;;;;;;10.00;5.57;;;;;;;-145.18;100.00;47178.06;4992496;28;20393;-73
2022/04/22 11:45:01;;;;;;;17.13;6.10;;;;;;;-145.18;100.00;47160.47;5009617;28;20501;-72
2022/04/22 11:47:28;;;;;;;9.30;5.40;;;;;;;-145.18;100.00;47187.84;5010137;28;20604;-73
2022/04/22 11:49:54;;;;;;;10.97;5.73;;;;;;;-145.18;100.00;47166.34;5009744;28;20034;-72
2022/04/22 11:52:20;;;;;;;13.03;5.80;;;;;;;-145.18;100.00;47162.44;5009987;28;20045;-72